تبوك, السعودية

09:56 PM AST on أعس×س 27, 2014 (GMT +0300)
Tabuk | Change Station
CLOSE
Current Station
Airport
Location: Tabuk,
Elevation: 2520 ft
Nearby Weather Stations

Elev 2520 ft 28.38 °N, 36.60 °E | Updated 56 minutes ago

Clear
صافية
93 °F
Feels Like 93 °F
N
12
ريح متغير ريح from غرب

هذا اليوم
High -- | Low -- °F
--% Chance of Precip.
Yesterday
High -- | Low -- °F
Precip. -- في
6:09 AM 7:00 PM
الهلال الأول, 4% visible
الضغط 29.80 في
وضوح الرؤية -9999.0 أميال
سحابات
نقطة الندى 32 °F
الرطوبة 11%
Rainfall 0.00 في
عمق الثلج Not available.
الأشعة فوق البنفسجية Not available.
Pollen Not available.
جودة الهواء Not available.
Flu Activity Not available.
METAR OETB 271800Z 26010KT CAVOK 34/00 Q1009 NOSIG

More Conditions Fewer Conditions

الضغط 29.80 في
وضوح الرؤية -9999.0 أميال
سحابات
نقطة الندى 32 °F
الرطوبة 11%
Rainfall 0.00 في
عمق الثلج Not available.
الأشعة فوق البنفسجية Not available.
Pollen Not available.
جودة الهواء Not available.
Flu Activity Not available.
METAR OETB 271800Z 26010KT CAVOK 34/00 Q1009 NOSIG

More Conditions Fewer Conditions

10-Day Weather Forecast

Almanac

علم الفلك

Aug. 27, 2014 Rise Set
Actual Time 6:09 AM AST 7:00 PM AST
Civil Twilight 5:44 AM AST 7:24 PM AST
Nautical Twilight 5:16 AM AST 7:53 PM AST
Astronomical Twilight 4:47 AM AST 8:22 PM AST
قمر 7:34 AM AST 7:55 PM AST
Length Of Visible Light 13h 39m
طول الیوم
12h 51m
Tomorrow will be 1m 36s shorter.
الهلال الأول, 4% of the Moon is Illuminated
هذا اليوم
الهلال الأول
Sep 2
الربع الاول
Sep 8
بدر
Sep 15
الربع الآخر
Sep 24
New

Today's Extremes

Country Highs Country Lows

Community

WunderPhotos

Upload Photos

1,747,752 photos uploaded!

Nearby

جودة الهواء

Not available.

عمق الثلج

Not available.

Earthquake Activity

City Distance Mag. Time & Date
No recent earthquake activity has been reported nearby.
Minimum magnitude displayed is 2.5.

Coastal Water Temperatures

مكان درجات الحرارة
No Stations Reporting

Nearby Weather Stations